METAR Formatted Surface Weather Observation
Issued by NWS Pago Pago

Home | Current Version | Previous Version | Text Only | Print | Product List | Glossary On
Versions: 1 2 3 4 5 6 7 8 9 10 11 12 13 14 15 16 17 18 19 20 21 22 23 24 25 26 27 28 29 30 31 32 33 34 35 36 37 38 39 40 41 42 43 44 45 46 47 48 49 50
000
SAZS31 NSTU 261600
MTRPPG
METAR NSTU 261550Z 00000KT 10SM SCT020 BKN040 26/24 A2973 RMK SLP069
 T02560238=



USA.gov is the U.S. government's official web portal to all federal, state and local government web resources and services.
  • National Weather Service
  • WSO Pago Pago Weather Service Office
  • Pago Pago, AS
  • (684) 699-9130
  • Page Author: PPG Webmaster
  • Incorrect Region Format!
  • Web Master's E-mail:
  • Page last modified: Dec 31st, 2019 04:07 UTC